sensor_id;sensor_type;location;lat;lon;timestamp;P1;durP1;ratioP1;P2;durP2;ratioP2
41881;SDS011;27562;47.524;12.404;2023-04-06T00:00:12;7.22;;;4.00;;
41881;SDS011;27562;47.524;12.404;2023-04-06T00:02:42;5.55;;;3.35;;
41881;SDS011;27562;47.524;12.404;2023-04-06T00:05:26;8.38;;;4.47;;
41881;SDS011;27562;47.524;12.404;2023-04-06T00:07:57;8.00;;;4.22;;
41881;SDS011;27562;47.524;12.404;2023-04-06T00:10:24;7.22;;;4.32;;
41881;SDS011;27562;47.524;12.404;2023-04-06T00:12:51;8.70;;;4.32;;
41881;SDS011;27562;47.524;12.404;2023-04-06T00:15:19;8.27;;;3.78;;
41881;SDS011;27562;47.524;12.404;2023-04-06T00:17:45;5.97;;;3.90;;
41881;SDS011;27562;47.524;12.404;2023-04-06T00:20:11;6.05;;;3.95;;
41881;SDS011;27562;47.524;12.404;2023-04-06T00:22:37;6.15;;;3.70;;
41881;SDS011;27562;47.524;12.404;2023-04-06T00:25:05;8.98;;;4.00;;
41881;SDS011;27562;47.524;12.404;2023-04-06T00:27:31;7.00;;;3.95;;
41881;SDS011;27562;47.524;12.404;2023-04-06T00:29:58;8.65;;;4.18;;
41881;SDS011;27562;47.524;12.404;2023-04-06T00:32:25;6.70;;;3.85;;
41881;SDS011;27562;47.524;12.404;2023-04-06T00:34:51;6.43;;;3.88;;
41881;SDS011;27562;47.524;12.404;2023-04-06T00:37:17;5.90;;;3.40;;
41881;SDS011;27562;47.524;12.404;2023-04-06T00:39:46;7.72;;;4.20;;
41881;SDS011;27562;47.524;12.404;2023-04-06T00:42:11;9.27;;;4.00;;
41881;SDS011;27562;47.524;12.404;2023-04-06T00:44:49;8.68;;;3.97;;
41881;SDS011;27562;47.524;12.404;2023-04-06T00:47:45;7.30;;;3.88;;
41881;SDS011;27562;47.524;12.404;2023-04-06T00:50:19;6.28;;;3.63;;
41881;SDS011;27562;47.524;12.404;2023-04-06T00:53:44;6.80;;;3.90;;
41881;SDS011;27562;47.524;12.404;2023-04-06T00:56:19;6.72;;;4.38;;
41881;SDS011;27562;47.524;12.404;2023-04-06T00:58:48;6.43;;;3.80;;
41881;SDS011;27562;47.524;12.404;2023-04-06T01:01:14;12.98;;;4.28;;
41881;SDS011;27562;47.524;12.404;2023-04-06T01:03:40;8.57;;;4.00;;
41881;SDS011;27562;47.524;12.404;2023-04-06T01:06:09;7.95;;;4.40;;
41881;SDS011;27562;47.524;12.404;2023-04-06T01:08:38;6.28;;;3.65;;
41881;SDS011;27562;47.524;12.404;2023-04-06T01:11:03;6.53;;;3.92;;
41881;SDS011;27562;47.524;12.404;2023-04-06T01:13:33;7.30;;;4.60;;
41881;SDS011;27562;47.524;12.404;2023-04-06T01:15:59;10.43;;;4.93;;
41881;SDS011;27562;47.524;12.404;2023-04-06T01:18:25;9.18;;;4.88;;
41881;SDS011;27562;47.524;12.404;2023-04-06T01:20:51;8.23;;;4.85;;
41881;SDS011;27562;47.524;12.404;2023-04-06T01:23:17;8.93;;;4.72;;
41881;SDS011;27562;47.524;12.404;2023-04-06T01:25:54;9.68;;;4.93;;
41881;SDS011;27562;47.524;12.404;2023-04-06T01:28:49;8.57;;;4.53;;
41881;SDS011;27562;47.524;12.404;2023-04-06T01:31:21;6.88;;;3.80;;
41881;SDS011;27562;47.524;12.404;2023-04-06T01:34:12;6.82;;;4.15;;
41881;SDS011;27562;47.524;12.404;2023-04-06T01:36:42;7.55;;;4.03;;
41881;SDS011;27562;47.524;12.404;2023-04-06T01:39:07;7.43;;;4.35;;
41881;SDS011;27562;47.524;12.404;2023-04-06T01:41:33;6.68;;;4.05;;
41881;SDS011;27562;47.524;12.404;2023-04-06T01:43:59;7.97;;;4.38;;
41881;SDS011;27562;47.524;12.404;2023-04-06T01:46:25;7.97;;;4.43;;
41881;SDS011;27562;47.524;12.404;2023-04-06T01:48:51;10.77;;;4.63;;
41881;SDS011;27562;47.524;12.404;2023-04-06T01:51:17;11.07;;;6.13;;
41881;SDS011;27562;47.524;12.404;2023-04-06T01:53:42;12.05;;;6.93;;
41881;SDS011;27562;47.524;12.404;2023-04-06T01:56:08;13.20;;;7.65;;
41881;SDS011;27562;47.524;12.404;2023-04-06T01:58:34;14.32;;;7.53;;
41881;SDS011;27562;47.524;12.404;2023-04-06T02:01:00;11.63;;;6.93;;
41881;SDS011;27562;47.524;12.404;2023-04-06T02:03:26;12.98;;;5.88;;
41881;SDS011;27562;47.524;12.404;2023-04-06T02:05:52;11.57;;;6.50;;
41881;SDS011;27562;47.524;12.404;2023-04-06T02:08:17;11.80;;;5.70;;
41881;SDS011;27562;47.524;12.404;2023-04-06T02:10:43;14.60;;;7.43;;
41881;SDS011;27562;47.524;12.404;2023-04-06T02:13:09;16.67;;;7.13;;
41881;SDS011;27562;47.524;12.404;2023-04-06T02:15:34;14.05;;;7.95;;
41881;SDS011;27562;47.524;12.404;2023-04-06T02:18:00;21.23;;;12.63;;
41881;SDS011;27562;47.524;12.404;2023-04-06T02:20:26;22.67;;;12.23;;
41881;SDS011;27562;47.524;12.404;2023-04-06T02:22:52;19.85;;;11.35;;
41881;SDS011;27562;47.524;12.404;2023-04-06T02:25:17;20.15;;;11.95;;
41881;SDS011;27562;47.524;12.404;2023-04-06T02:27:43;16.90;;;11.23;;
41881;SDS011;27562;47.524;12.404;2023-04-06T02:30:09;15.32;;;9.55;;
41881;SDS011;27562;47.524;12.404;2023-04-06T02:32:35;14.27;;;10.10;;
41881;SDS011;27562;47.524;12.404;2023-04-06T02:35:01;18.98;;;14.13;;
41881;SDS011;27562;47.524;12.404;2023-04-06T02:37:26;16.63;;;13.68;;
41881;SDS011;27562;47.524;12.404;2023-04-06T02:39:52;20.30;;;14.00;;
41881;SDS011;27562;47.524;12.404;2023-04-06T02:42:18;19.85;;;15.20;;
41881;SDS011;27562;47.524;12.404;2023-04-06T02:44:43;14.18;;;10.93;;
41881;SDS011;27562;47.524;12.404;2023-04-06T02:47:09;14.38;;;9.40;;
41881;SDS011;27562;47.524;12.404;2023-04-06T02:49:35;10.77;;;8.07;;
41881;SDS011;27562;47.524;12.404;2023-04-06T02:52:01;9.63;;;7.30;;
41881;SDS011;27562;47.524;12.404;2023-04-06T02:54:27;10.82;;;6.90;;
41881;SDS011;27562;47.524;12.404;2023-04-06T02:56:53;8.95;;;5.82;;
41881;SDS011;27562;47.524;12.404;2023-04-06T02:59:18;10.60;;;5.78;;
41881;SDS011;27562;47.524;12.404;2023-04-06T03:01:44;8.55;;;5.32;;
41881;SDS011;27562;47.524;12.404;2023-04-06T03:04:10;11.88;;;5.97;;
41881;SDS011;27562;47.524;12.404;2023-04-06T03:06:36;10.35;;;5.78;;
41881;SDS011;27562;47.524;12.404;2023-04-06T03:09:02;14.25;;;7.47;;
41881;SDS011;27562;47.524;12.404;2023-04-06T03:11:27;15.07;;;8.00;;
41881;SDS011;27562;47.524;12.404;2023-04-06T03:13:53;17.85;;;8.75;;
41881;SDS011;27562;47.524;12.404;2023-04-06T03:16:19;18.50;;;8.55;;
41881;SDS011;27562;47.524;12.404;2023-04-06T03:18:45;16.90;;;8.10;;
41881;SDS011;27562;47.524;12.404;2023-04-06T03:21:12;9.50;;;5.75;;
41881;SDS011;27562;47.524;12.404;2023-04-06T03:23:40;10.38;;;5.72;;
41881;SDS011;27562;47.524;12.404;2023-04-06T03:26:06;9.68;;;5.07;;
41881;SDS011;27562;47.524;12.404;2023-04-06T03:28:31;8.88;;;5.07;;
41881;SDS011;27562;47.524;12.404;2023-04-06T03:30:57;9.57;;;5.13;;
41881;SDS011;27562;47.524;12.404;2023-04-06T03:33:23;8.52;;;5.03;;
41881;SDS011;27562;47.524;12.404;2023-04-06T03:35:52;7.63;;;4.70;;
41881;SDS011;27562;47.524;12.404;2023-04-06T03:38:18;8.93;;;5.07;;
41881;SDS011;27562;47.524;12.404;2023-04-06T03:40:44;10.48;;;6.20;;
41881;SDS011;27562;47.524;12.404;2023-04-06T03:43:10;13.02;;;7.40;;
41881;SDS011;27562;47.524;12.404;2023-04-06T03:45:35;20.67;;;10.00;;
41881;SDS011;27562;47.524;12.404;2023-04-06T03:48:01;23.92;;;12.82;;
41881;SDS011;27562;47.524;12.404;2023-04-06T03:50:27;22.30;;;12.63;;
41881;SDS011;27562;47.524;12.404;2023-04-06T03:52:52;21.23;;;12.23;;
41881;SDS011;27562;47.524;12.404;2023-04-06T03:55:18;21.88;;;11.88;;
41881;SDS011;27562;47.524;12.404;2023-04-06T03:57:44;21.45;;;11.60;;
41881;SDS011;27562;47.524;12.404;2023-04-06T04:00:10;33.05;;;13.90;;
41881;SDS011;27562;47.524;12.404;2023-04-06T04:02:36;15.40;;;8.43;;
41881;SDS011;27562;47.524;12.404;2023-04-06T04:05:02;11.25;;;6.80;;
41881;SDS011;27562;47.524;12.404;2023-04-06T04:07:28;11.85;;;6.88;;
41881;SDS011;27562;47.524;12.404;2023-04-06T04:09:54;11.73;;;6.00;;
41881;SDS011;27562;47.524;12.404;2023-04-06T04:12:20;9.75;;;5.93;;
41881;SDS011;27562;47.524;12.404;2023-04-06T04:14:45;11.32;;;6.00;;
41881;SDS011;27562;47.524;12.404;2023-04-06T04:17:11;9.73;;;5.63;;
41881;SDS011;27562;47.524;12.404;2023-04-06T04:19:37;9.55;;;5.97;;
41881;SDS011;27562;47.524;12.404;2023-04-06T04:22:02;18.40;;;9.27;;
41881;SDS011;27562;47.524;12.404;2023-04-06T04:24:30;14.38;;;8.07;;
41881;SDS011;27562;47.524;12.404;2023-04-06T04:26:55;11.82;;;6.43;;
41881;SDS011;27562;47.524;12.404;2023-04-06T04:29:21;15.10;;;7.18;;
41881;SDS011;27562;47.524;12.404;2023-04-06T04:31:47;15.90;;;6.82;;
41881;SDS011;27562;47.524;12.404;2023-04-06T04:34:14;13.23;;;6.63;;
41881;SDS011;27562;47.524;12.404;2023-04-06T04:36:40;12.35;;;9.27;;
41881;SDS011;27562;47.524;12.404;2023-04-06T04:39:09;13.20;;;8.75;;
41881;SDS011;27562;47.524;12.404;2023-04-06T04:41:34;16.02;;;8.45;;
41881;SDS011;27562;47.524;12.404;2023-04-06T04:44:00;12.90;;;8.35;;
41881;SDS011;27562;47.524;12.404;2023-04-06T04:46:26;17.35;;;10.05;;
41881;SDS011;27562;47.524;12.404;2023-04-06T04:48:52;17.00;;;10.45;;
41881;SDS011;27562;47.524;12.404;2023-04-06T04:51:18;16.95;;;10.40;;
41881;SDS011;27562;47.524;12.404;2023-04-06T04:53:44;13.98;;;9.20;;
41881;SDS011;27562;47.524;12.404;2023-04-06T04:56:10;12.70;;;8.20;;
41881;SDS011;27562;47.524;12.404;2023-04-06T04:58:36;14.88;;;8.95;;
41881;SDS011;27562;47.524;12.404;2023-04-06T05:01:02;15.70;;;9.07;;
41881;SDS011;27562;47.524;12.404;2023-04-06T05:03:27;19.13;;;9.38;;
41881;SDS011;27562;47.524;12.404;2023-04-06T05:05:53;15.02;;;9.18;;
41881;SDS011;27562;47.524;12.404;2023-04-06T05:08:19;17.13;;;8.15;;
41881;SDS011;27562;47.524;12.404;2023-04-06T05:10:45;16.35;;;9.82;;
41881;SDS011;27562;47.524;12.404;2023-04-06T05:13:11;16.60;;;8.95;;
41881;SDS011;27562;47.524;12.404;2023-04-06T05:15:37;16.88;;;8.43;;
41881;SDS011;27562;47.524;12.404;2023-04-06T05:18:04;12.35;;;7.95;;
41881;SDS011;27562;47.524;12.404;2023-04-06T05:20:31;11.77;;;7.13;;
41881;SDS011;27562;47.524;12.404;2023-04-06T05:22:56;20.92;;;10.68;;
41881;SDS011;27562;47.524;12.404;2023-04-06T05:25:22;43.78;;;20.65;;
41881;SDS011;27562;47.524;12.404;2023-04-06T05:27:48;50.95;;;23.83;;
41881;SDS011;27562;47.524;12.404;2023-04-06T05:30:14;42.05;;;21.02;;
41881;SDS011;27562;47.524;12.404;2023-04-06T05:32:40;26.48;;;13.68;;
41881;SDS011;27562;47.524;12.404;2023-04-06T05:35:05;14.20;;;8.40;;
41881;SDS011;27562;47.524;12.404;2023-04-06T05:37:31;11.85;;;7.03;;
41881;SDS011;27562;47.524;12.404;2023-04-06T05:39:57;12.32;;;6.32;;
41881;SDS011;27562;47.524;12.404;2023-04-06T05:42:23;11.38;;;6.22;;
41881;SDS011;27562;47.524;12.404;2023-04-06T05:44:48;12.52;;;6.32;;
41881;SDS011;27562;47.524;12.404;2023-04-06T05:47:14;10.55;;;6.25;;
41881;SDS011;27562;47.524;12.404;2023-04-06T05:49:43;11.23;;;6.22;;
41881;SDS011;27562;47.524;12.404;2023-04-06T05:52:08;11.27;;;6.35;;
41881;SDS011;27562;47.524;12.404;2023-04-06T05:54:35;10.50;;;6.18;;
41881;SDS011;27562;47.524;12.404;2023-04-06T05:57:02;12.45;;;6.82;;
41881;SDS011;27562;47.524;12.404;2023-04-06T05:59:29;11.07;;;6.55;;
41881;SDS011;27562;47.524;12.404;2023-04-06T06:01:55;13.38;;;7.35;;
41881;SDS011;27562;47.524;12.404;2023-04-06T06:04:21;12.02;;;7.32;;
41881;SDS011;27562;47.524;12.404;2023-04-06T06:06:47;13.07;;;6.72;;
41881;SDS011;27562;47.524;12.404;2023-04-06T06:09:12;14.93;;;8.18;;
41881;SDS011;27562;47.524;12.404;2023-04-06T06:11:38;15.55;;;8.38;;
41881;SDS011;27562;47.524;12.404;2023-04-06T06:14:04;14.32;;;8.10;;
41881;SDS011;27562;47.524;12.404;2023-04-06T06:16:30;14.45;;;7.47;;
41881;SDS011;27562;47.524;12.404;2023-04-06T06:18:55;14.73;;;8.73;;
41881;SDS011;27562;47.524;12.404;2023-04-06T06:21:21;15.40;;;8.50;;
41881;SDS011;27562;47.524;12.404;2023-04-06T06:23:47;13.18;;;8.10;;
41881;SDS011;27562;47.524;12.404;2023-04-06T06:26:14;19.00;;;9.45;;
41881;SDS011;27562;47.524;12.404;2023-04-06T06:28:40;17.73;;;8.85;;
41881;SDS011;27562;47.524;12.404;2023-04-06T06:31:06;14.10;;;7.18;;
41881;SDS011;27562;47.524;12.404;2023-04-06T06:33:32;15.35;;;8.55;;
41881;SDS011;27562;47.524;12.404;2023-04-06T06:35:58;14.40;;;8.20;;
41881;SDS011;27562;47.524;12.404;2023-04-06T06:38:23;15.85;;;9.02;;
41881;SDS011;27562;47.524;12.404;2023-04-06T06:40:52;13.70;;;8.43;;
41881;SDS011;27562;47.524;12.404;2023-04-06T06:43:17;14.60;;;8.23;;
41881;SDS011;27562;47.524;12.404;2023-04-06T06:45:43;15.82;;;8.45;;
41881;SDS011;27562;47.524;12.404;2023-04-06T06:48:09;13.07;;;8.35;;
41881;SDS011;27562;47.524;12.404;2023-04-06T06:50:35;16.58;;;8.10;;
41881;SDS011;27562;47.524;12.404;2023-04-06T06:53:01;15.88;;;9.05;;
41881;SDS011;27562;47.524;12.404;2023-04-06T06:55:27;12.88;;;8.18;;
41881;SDS011;27562;47.524;12.404;2023-04-06T06:57:53;19.13;;;8.93;;
41881;SDS011;27562;47.524;12.404;2023-04-06T07:00:19;12.68;;;7.88;;
41881;SDS011;27562;47.524;12.404;2023-04-06T07:02:47;12.18;;;7.85;;
41881;SDS011;27562;47.524;12.404;2023-04-06T07:05:13;13.52;;;8.30;;
41881;SDS011;27562;47.524;12.404;2023-04-06T07:07:40;17.40;;;9.27;;
41881;SDS011;27562;47.524;12.404;2023-04-06T07:10:07;15.60;;;7.85;;
41881;SDS011;27562;47.524;12.404;2023-04-06T07:12:34;13.43;;;8.40;;
41881;SDS011;27562;47.524;12.404;2023-04-06T07:15:00;17.70;;;8.05;;
41881;SDS011;27562;47.524;12.404;2023-04-06T07:17:25;13.85;;;7.68;;
41881;SDS011;27562;47.524;12.404;2023-04-06T07:19:51;12.50;;;7.78;;
41881;SDS011;27562;47.524;12.404;2023-04-06T07:22:17;14.55;;;8.30;;
41881;SDS011;27562;47.524;12.404;2023-04-06T07:24:43;13.75;;;8.23;;
41881;SDS011;27562;47.524;12.404;2023-04-06T07:27:08;13.65;;;7.60;;
41881;SDS011;27562;47.524;12.404;2023-04-06T07:29:34;12.70;;;7.35;;
41881;SDS011;27562;47.524;12.404;2023-04-06T07:32:00;14.95;;;8.05;;
41881;SDS011;27562;47.524;12.404;2023-04-06T07:34:25;12.98;;;8.25;;
41881;SDS011;27562;47.524;12.404;2023-04-06T07:36:51;12.18;;;7.40;;
41881;SDS011;27562;47.524;12.404;2023-04-06T07:39:18;13.15;;;7.80;;
41881;SDS011;27562;47.524;12.404;2023-04-06T07:41:45;13.27;;;7.85;;
41881;SDS011;27562;47.524;12.404;2023-04-06T07:44:10;13.15;;;7.05;;
41881;SDS011;27562;47.524;12.404;2023-04-06T07:46:36;15.32;;;8.60;;
41881;SDS011;27562;47.524;12.404;2023-04-06T07:49:02;13.32;;;8.32;;
41881;SDS011;27562;47.524;12.404;2023-04-06T07:51:28;12.93;;;7.90;;
41881;SDS011;27562;47.524;12.404;2023-04-06T07:53:54;10.00;;;6.80;;
41881;SDS011;27562;47.524;12.404;2023-04-06T07:56:19;15.02;;;7.95;;
41881;SDS011;27562;47.524;12.404;2023-04-06T07:58:46;13.95;;;6.93;;
41881;SDS011;27562;47.524;12.404;2023-04-06T08:01:12;9.35;;;6.53;;
41881;SDS011;27562;47.524;12.404;2023-04-06T08:03:38;10.52;;;6.82;;
41881;SDS011;27562;47.524;12.404;2023-04-06T08:06:03;14.50;;;7.82;;
41881;SDS011;27562;47.524;12.404;2023-04-06T08:08:30;12.48;;;7.75;;
41881;SDS011;27562;47.524;12.404;2023-04-06T08:10:55;17.92;;;8.05;;
41881;SDS011;27562;47.524;12.404;2023-04-06T08:13:21;13.00;;;7.80;;
41881;SDS011;27562;47.524;12.404;2023-04-06T08:15:47;15.32;;;7.70;;
41881;SDS011;27562;47.524;12.404;2023-04-06T08:18:12;11.02;;;6.90;;
41881;SDS011;27562;47.524;12.404;2023-04-06T08:20:39;9.15;;;6.50;;
41881;SDS011;27562;47.524;12.404;2023-04-06T08:23:05;13.02;;;7.32;;
41881;SDS011;27562;47.524;12.404;2023-04-06T08:25:31;11.77;;;6.30;;
41881;SDS011;27562;47.524;12.404;2023-04-06T08:27:59;11.82;;;7.00;;
41881;SDS011;27562;47.524;12.404;2023-04-06T08:30:24;9.43;;;6.63;;
41881;SDS011;27562;47.524;12.404;2023-04-06T08:32:50;11.20;;;6.82;;
41881;SDS011;27562;47.524;12.404;2023-04-06T08:35:16;14.82;;;7.70;;
41881;SDS011;27562;47.524;12.404;2023-04-06T08:37:42;15.02;;;7.85;;
41881;SDS011;27562;47.524;12.404;2023-04-06T08:40:07;11.43;;;7.38;;
41881;SDS011;27562;47.524;12.404;2023-04-06T08:42:34;10.38;;;7.13;;
41881;SDS011;27562;47.524;12.404;2023-04-06T08:45:05;15.25;;;7.82;;
41881;SDS011;27562;47.524;12.404;2023-04-06T08:47:32;13.70;;;7.55;;
41881;SDS011;27562;47.524;12.404;2023-04-06T08:49:59;11.63;;;7.32;;
41881;SDS011;27562;47.524;12.404;2023-04-06T08:52:29;14.48;;;7.38;;
41881;SDS011;27562;47.524;12.404;2023-04-06T08:54:57;9.27;;;6.70;;
41881;SDS011;27562;47.524;12.404;2023-04-06T08:57:22;9.32;;;6.57;;
41881;SDS011;27562;47.524;12.404;2023-04-06T08:59:49;9.10;;;6.78;;
41881;SDS011;27562;47.524;12.404;2023-04-06T09:02:17;10.55;;;6.72;;
41881;SDS011;27562;47.524;12.404;2023-04-06T09:04:52;10.73;;;7.05;;
41881;SDS011;27562;47.524;12.404;2023-04-06T09:07:19;9.02;;;6.55;;
41881;SDS011;27562;47.524;12.404;2023-04-06T09:09:46;11.52;;;6.65;;
41881;SDS011;27562;47.524;12.404;2023-04-06T09:12:26;10.70;;;6.72;;
41881;SDS011;27562;47.524;12.404;2023-04-06T09:14:53;11.07;;;7.22;;
41881;SDS011;27562;47.524;12.404;2023-04-06T09:17:30;9.90;;;6.45;;
41881;SDS011;27562;47.524;12.404;2023-04-06T09:19:59;10.10;;;6.18;;
41881;SDS011;27562;47.524;12.404;2023-04-06T09:22:25;10.10;;;6.18;;
41881;SDS011;27562;47.524;12.404;2023-04-06T09:27:35;9.60;;;6.25;;
41881;SDS011;27562;47.524;12.404;2023-04-06T09:32:45;10.65;;;6.32;;
41881;SDS011;27562;47.524;12.404;2023-04-06T09:35:11;10.20;;;6.78;;
41881;SDS011;27562;47.524;12.404;2023-04-06T09:37:37;8.52;;;6.70;;
41881;SDS011;27562;47.524;12.404;2023-04-06T09:40:06;11.45;;;6.60;;
41881;SDS011;27562;47.524;12.404;2023-04-06T09:42:33;11.93;;;6.78;;
41881;SDS011;27562;47.524;12.404;2023-04-06T09:45:00;11.63;;;6.70;;
41881;SDS011;27562;47.524;12.404;2023-04-06T09:47:26;9.43;;;5.85;;
41881;SDS011;27562;47.524;12.404;2023-04-06T09:49:56;11.13;;;6.47;;
41881;SDS011;27562;47.524;12.404;2023-04-06T09:52:26;10.40;;;6.43;;
41881;SDS011;27562;47.524;12.404;2023-04-06T09:54:59;10.88;;;7.85;;
41881;SDS011;27562;47.524;12.404;2023-04-06T10:00:15;8.95;;;5.75;;
41881;SDS011;27562;47.524;12.404;2023-04-06T10:02:56;9.80;;;6.40;;
41881;SDS011;27562;47.524;12.404;2023-04-06T10:05:42;9.63;;;6.05;;
41881;SDS011;27562;47.524;12.404;2023-04-06T10:08:15;8.70;;;6.20;;
41881;SDS011;27562;47.524;12.404;2023-04-06T10:10:42;9.73;;;6.40;;
41881;SDS011;27562;47.524;12.404;2023-04-06T10:13:09;8.02;;;5.85;;
41881;SDS011;27562;47.524;12.404;2023-04-06T10:15:36;7.53;;;5.50;;
41881;SDS011;27562;47.524;12.404;2023-04-06T10:18:04;8.52;;;5.55;;
41881;SDS011;27562;47.524;12.404;2023-04-06T10:26:17;7.78;;;5.85;;
41881;SDS011;27562;47.524;12.404;2023-04-06T10:28:45;9.82;;;6.03;;
41881;SDS011;27562;47.524;12.404;2023-04-06T10:31:12;8.40;;;5.43;;
41881;SDS011;27562;47.524;12.404;2023-04-06T10:33:38;11.55;;;6.40;;
41881;SDS011;27562;47.524;12.404;2023-04-06T10:36:24;10.05;;;5.28;;
41881;SDS011;27562;47.524;12.404;2023-04-06T10:39:01;13.85;;;7.45;;
41881;SDS011;27562;47.524;12.404;2023-04-06T10:42:05;11.32;;;6.30;;
41881;SDS011;27562;47.524;12.404;2023-04-06T10:44:31;7.35;;;5.03;;
41881;SDS011;27562;47.524;12.404;2023-04-06T10:47:15;10.13;;;5.93;;
41881;SDS011;27562;47.524;12.404;2023-04-06T10:49:42;9.20;;;5.43;;
41881;SDS011;27562;47.524;12.404;2023-04-06T10:52:08;9.25;;;5.70;;
41881;SDS011;27562;47.524;12.404;2023-04-06T10:54:34;9.23;;;5.38;;
41881;SDS011;27562;47.524;12.404;2023-04-06T10:57:06;8.00;;;5.53;;
41881;SDS011;27562;47.524;12.404;2023-04-06T10:59:32;10.00;;;5.50;;
41881;SDS011;27562;47.524;12.404;2023-04-06T11:01:58;7.57;;;5.40;;
41881;SDS011;27562;47.524;12.404;2023-04-06T11:04:24;8.43;;;5.63;;
41881;SDS011;27562;47.524;12.404;2023-04-06T11:06:50;9.93;;;5.15;;
41881;SDS011;27562;47.524;12.404;2023-04-06T11:09:29;7.50;;;4.47;;
41881;SDS011;27562;47.524;12.404;2023-04-06T11:11:56;9.40;;;5.03;;
41881;SDS011;27562;47.524;12.404;2023-04-06T11:14:22;6.00;;;4.60;;
41881;SDS011;27562;47.524;12.404;2023-04-06T11:16:48;7.85;;;4.75;;
41881;SDS011;27562;47.524;12.404;2023-04-06T11:19:15;7.35;;;4.68;;
41881;SDS011;27562;47.524;12.404;2023-04-06T11:21:42;5.80;;;4.47;;
41881;SDS011;27562;47.524;12.404;2023-04-06T11:29:19;6.60;;;4.72;;
41881;SDS011;27562;47.524;12.404;2023-04-06T11:31:51;7.53;;;4.85;;
41881;SDS011;27562;47.524;12.404;2023-04-06T11:34:28;7.80;;;4.93;;
41881;SDS011;27562;47.524;12.404;2023-04-06T11:36:56;8.63;;;5.55;;
41881;SDS011;27562;47.524;12.404;2023-04-06T11:39:30;7.88;;;5.18;;
41881;SDS011;27562;47.524;12.404;2023-04-06T11:41:58;9.70;;;6.32;;
41881;SDS011;27562;47.524;12.404;2023-04-06T11:44:35;8.10;;;5.45;;
41881;SDS011;27562;47.524;12.404;2023-04-06T11:47:04;6.93;;;4.75;;
41881;SDS011;27562;47.524;12.404;2023-04-06T11:49:31;7.00;;;4.85;;
41881;SDS011;27562;47.524;12.404;2023-04-06T11:51:59;7.90;;;5.47;;
41881;SDS011;27562;47.524;12.404;2023-04-06T11:54:29;7.93;;;5.30;;
41881;SDS011;27562;47.524;12.404;2023-04-06T11:56:59;8.00;;;5.30;;
41881;SDS011;27562;47.524;12.404;2023-04-06T11:59:25;9.82;;;5.47;;
41881;SDS011;27562;47.524;12.404;2023-04-06T12:01:52;6.97;;;5.30;;
41881;SDS011;27562;47.524;12.404;2023-04-06T12:04:19;8.15;;;4.68;;
41881;SDS011;27562;47.524;12.404;2023-04-06T12:06:45;7.40;;;4.75;;
41881;SDS011;27562;47.524;12.404;2023-04-06T12:09:11;8.85;;;4.95;;
41881;SDS011;27562;47.524;12.404;2023-04-06T12:11:37;8.90;;;5.10;;
41881;SDS011;27562;47.524;12.404;2023-04-06T12:14:04;8.82;;;4.97;;
41881;SDS011;27562;47.524;12.404;2023-04-06T12:16:32;7.88;;;4.90;;
41881;SDS011;27562;47.524;12.404;2023-04-06T12:18:59;7.95;;;5.22;;
41881;SDS011;27562;47.524;12.404;2023-04-06T12:21:26;5.93;;;4.55;;
41881;SDS011;27562;47.524;12.404;2023-04-06T12:23:53;9.07;;;4.85;;
41881;SDS011;27562;47.524;12.404;2023-04-06T12:26:20;7.28;;;4.53;;
41881;SDS011;27562;47.524;12.404;2023-04-06T12:28:46;7.20;;;4.22;;
41881;SDS011;27562;47.524;12.404;2023-04-06T12:31:16;5.22;;;4.07;;
41881;SDS011;27562;47.524;12.404;2023-04-06T12:33:42;7.40;;;4.68;;
41881;SDS011;27562;47.524;12.404;2023-04-06T12:36:13;7.82;;;5.10;;
41881;SDS011;27562;47.524;12.404;2023-04-06T12:38:39;7.38;;;4.47;;
41881;SDS011;27562;47.524;12.404;2023-04-06T12:41:06;8.65;;;4.80;;
41881;SDS011;27562;47.524;12.404;2023-04-06T12:43:32;6.03;;;4.32;;
41881;SDS011;27562;47.524;12.404;2023-04-06T12:45:58;7.85;;;4.55;;
41881;SDS011;27562;47.524;12.404;2023-04-06T12:48:24;8.57;;;4.60;;
41881;SDS011;27562;47.524;12.404;2023-04-06T12:50:54;6.25;;;4.40;;
41881;SDS011;27562;47.524;12.404;2023-04-06T12:53:22;5.80;;;4.50;;
41881;SDS011;27562;47.524;12.404;2023-04-06T12:55:48;7.13;;;4.03;;
41881;SDS011;27562;47.524;12.404;2023-04-06T12:58:13;5.60;;;3.92;;
41881;SDS011;27562;47.524;12.404;2023-04-06T13:00:40;7.55;;;4.75;;
41881;SDS011;27562;47.524;12.404;2023-04-06T13:03:06;5.55;;;4.10;;
41881;SDS011;27562;47.524;12.404;2023-04-06T13:05:32;6.00;;;4.15;;
41881;SDS011;27562;47.524;12.404;2023-04-06T13:07:57;9.57;;;4.53;;
41881;SDS011;27562;47.524;12.404;2023-04-06T13:10:23;7.20;;;4.50;;
41881;SDS011;27562;47.524;12.404;2023-04-06T13:12:49;6.35;;;4.20;;
41881;SDS011;27562;47.524;12.404;2023-04-06T13:15:14;4.95;;;3.90;;
41881;SDS011;27562;47.524;12.404;2023-04-06T13:17:40;6.15;;;4.55;;
41881;SDS011;27562;47.524;12.404;2023-04-06T13:20:06;8.02;;;4.63;;
41881;SDS011;27562;47.524;12.404;2023-04-06T13:22:32;6.38;;;4.47;;
41881;SDS011;27562;47.524;12.404;2023-04-06T13:24:58;7.40;;;4.60;;
41881;SDS011;27562;47.524;12.404;2023-04-06T13:27:24;7.32;;;4.20;;
41881;SDS011;27562;47.524;12.404;2023-04-06T13:29:49;6.80;;;4.32;;
41881;SDS011;27562;47.524;12.404;2023-04-06T13:32:15;6.82;;;4.28;;
41881;SDS011;27562;47.524;12.404;2023-04-06T13:34:41;8.07;;;4.05;;
41881;SDS011;27562;47.524;12.404;2023-04-06T13:37:10;6.70;;;4.20;;
41881;SDS011;27562;47.524;12.404;2023-04-06T13:39:37;7.10;;;3.90;;
41881;SDS011;27562;47.524;12.404;2023-04-06T13:42:03;8.15;;;4.22;;
41881;SDS011;27562;47.524;12.404;2023-04-06T13:44:28;6.38;;;4.45;;
41881;SDS011;27562;47.524;12.404;2023-04-06T13:46:54;6.50;;;4.13;;
41881;SDS011;27562;47.524;12.404;2023-04-06T13:49:21;6.90;;;4.38;;
41881;SDS011;27562;47.524;12.404;2023-04-06T13:51:47;8.48;;;4.20;;
41881;SDS011;27562;47.524;12.404;2023-04-06T13:54:13;7.88;;;4.45;;
41881;SDS011;27562;47.524;12.404;2023-04-06T13:56:38;6.43;;;4.10;;
41881;SDS011;27562;47.524;12.404;2023-04-06T13:59:04;5.20;;;4.07;;
41881;SDS011;27562;47.524;12.404;2023-04-06T14:01:30;5.50;;;4.25;;
41881;SDS011;27562;47.524;12.404;2023-04-06T14:03:56;5.35;;;3.78;;
41881;SDS011;27562;47.524;12.404;2023-04-06T14:06:21;6.95;;;4.10;;
41881;SDS011;27562;47.524;12.404;2023-04-06T14:08:47;7.20;;;4.13;;
41881;SDS011;27562;47.524;12.404;2023-04-06T14:11:13;5.90;;;4.75;;
41881;SDS011;27562;47.524;12.404;2023-04-06T14:13:40;6.18;;;4.20;;
41881;SDS011;27562;47.524;12.404;2023-04-06T14:16:06;6.80;;;5.07;;
41881;SDS011;27562;47.524;12.404;2023-04-06T14:18:32;8.07;;;5.15;;
41881;SDS011;27562;47.524;12.404;2023-04-06T14:20:59;8.75;;;5.28;;
41881;SDS011;27562;47.524;12.404;2023-04-06T14:23:26;9.18;;;4.85;;
41881;SDS011;27562;47.524;12.404;2023-04-06T14:26:06;7.50;;;5.03;;
41881;SDS011;27562;47.524;12.404;2023-04-06T14:28:35;8.98;;;5.57;;
41881;SDS011;27562;47.524;12.404;2023-04-06T14:31:01;9.07;;;5.22;;
41881;SDS011;27562;47.524;12.404;2023-04-06T14:33:34;7.68;;;5.10;;
41881;SDS011;27562;47.524;12.404;2023-04-06T14:36:02;8.32;;;4.97;;
41881;SDS011;27562;47.524;12.404;2023-04-06T14:38:28;11.25;;;5.10;;
41881;SDS011;27562;47.524;12.404;2023-04-06T14:40:54;8.15;;;5.07;;
41881;SDS011;27562;47.524;12.404;2023-04-06T14:43:21;7.95;;;4.57;;
41881;SDS011;27562;47.524;12.404;2023-04-06T14:45:46;7.18;;;5.20;;